sensor_id;sensor_type;location;lat;lon;timestamp;P1;durP1;ratioP1;P2;durP2;ratioP2
3311;SDS011;1668;49.648;8.570;2022-12-07T00:01:24;6.13;;;4.93;;
3311;SDS011;1668;49.648;8.570;2022-12-07T00:03:53;7.40;;;5.40;;
3311;SDS011;1668;49.648;8.570;2022-12-07T00:06:23;7.27;;;5.13;;
3311;SDS011;1668;49.648;8.570;2022-12-07T00:08:50;9.23;;;5.70;;
3311;SDS011;1668;49.648;8.570;2022-12-07T00:11:17;8.10;;;5.50;;
3311;SDS011;1668;49.648;8.570;2022-12-07T00:13:46;8.53;;;5.17;;
3311;SDS011;1668;49.648;8.570;2022-12-07T00:16:14;6.67;;;5.00;;
3311;SDS011;1668;49.648;8.570;2022-12-07T00:18:42;6.80;;;5.00;;
3311;SDS011;1668;49.648;8.570;2022-12-07T00:21:11;10.60;;;5.83;;
3311;SDS011;1668;49.648;8.570;2022-12-07T00:23:40;8.77;;;5.40;;
3311;SDS011;1668;49.648;8.570;2022-12-07T00:26:09;8.10;;;4.87;;
3311;SDS011;1668;49.648;8.570;2022-12-07T00:28:37;7.77;;;5.27;;
3311;SDS011;1668;49.648;8.570;2022-12-07T00:31:06;6.43;;;4.27;;
3311;SDS011;1668;49.648;8.570;2022-12-07T00:33:34;6.30;;;4.27;;
3311;SDS011;1668;49.648;8.570;2022-12-07T00:36:02;5.97;;;4.03;;
3311;SDS011;1668;49.648;8.570;2022-12-07T00:38:31;7.50;;;5.00;;
3311;SDS011;1668;49.648;8.570;2022-12-07T00:41:01;10.07;;;4.50;;
3311;SDS011;1668;49.648;8.570;2022-12-07T00:43:29;7.53;;;5.07;;
3311;SDS011;1668;49.648;8.570;2022-12-07T00:45:56;6.97;;;4.60;;
3311;SDS011;1668;49.648;8.570;2022-12-07T00:48:23;8.40;;;5.43;;
3311;SDS011;1668;49.648;8.570;2022-12-07T00:50:50;7.93;;;5.27;;
3311;SDS011;1668;49.648;8.570;2022-12-07T00:53:17;8.63;;;5.40;;
3311;SDS011;1668;49.648;8.570;2022-12-07T00:55:45;8.63;;;4.87;;
3311;SDS011;1668;49.648;8.570;2022-12-07T00:58:13;8.07;;;5.23;;
3311;SDS011;1668;49.648;8.570;2022-12-07T01:00:41;8.00;;;5.07;;
3311;SDS011;1668;49.648;8.570;2022-12-07T01:03:09;6.70;;;4.40;;
3311;SDS011;1668;49.648;8.570;2022-12-07T01:05:38;9.43;;;5.43;;
3311;SDS011;1668;49.648;8.570;2022-12-07T01:08:05;7.33;;;5.17;;
3311;SDS011;1668;49.648;8.570;2022-12-07T01:10:32;6.73;;;5.00;;
3311;SDS011;1668;49.648;8.570;2022-12-07T01:12:59;7.83;;;5.10;;
3311;SDS011;1668;49.648;8.570;2022-12-07T01:15:27;7.83;;;5.00;;
3311;SDS011;1668;49.648;8.570;2022-12-07T01:17:54;7.67;;;4.97;;
3311;SDS011;1668;49.648;8.570;2022-12-07T01:20:21;8.40;;;5.30;;
3311;SDS011;1668;49.648;8.570;2022-12-07T01:22:48;7.90;;;4.90;;
3311;SDS011;1668;49.648;8.570;2022-12-07T01:25:15;7.10;;;5.17;;
3311;SDS011;1668;49.648;8.570;2022-12-07T01:27:41;7.10;;;4.90;;
3311;SDS011;1668;49.648;8.570;2022-12-07T01:30:09;9.60;;;5.20;;
3311;SDS011;1668;49.648;8.570;2022-12-07T01:32:38;7.63;;;5.30;;
3311;SDS011;1668;49.648;8.570;2022-12-07T01:35:05;9.47;;;5.17;;
3311;SDS011;1668;49.648;8.570;2022-12-07T01:37:33;8.70;;;5.30;;
3311;SDS011;1668;49.648;8.570;2022-12-07T01:40:02;7.97;;;4.93;;
3311;SDS011;1668;49.648;8.570;2022-12-07T01:42:30;7.10;;;5.00;;
3311;SDS011;1668;49.648;8.570;2022-12-07T01:48:11;9.67;;;6.23;;
3311;SDS011;1668;49.648;8.570;2022-12-07T01:50:42;9.30;;;5.80;;
3311;SDS011;1668;49.648;8.570;2022-12-07T01:53:11;9.43;;;6.00;;
3311;SDS011;1668;49.648;8.570;2022-12-07T01:55:40;10.77;;;7.10;;
3311;SDS011;1668;49.648;8.570;2022-12-07T01:58:10;12.93;;;7.97;;
3311;SDS011;1668;49.648;8.570;2022-12-07T02:00:38;11.63;;;6.70;;
3311;SDS011;1668;49.648;8.570;2022-12-07T02:03:06;12.50;;;7.77;;
3311;SDS011;1668;49.648;8.570;2022-12-07T02:05:38;10.60;;;6.20;;
3311;SDS011;1668;49.648;8.570;2022-12-07T02:08:07;7.90;;;6.40;;
3311;SDS011;1668;49.648;8.570;2022-12-07T02:10:35;8.10;;;5.33;;
3311;SDS011;1668;49.648;8.570;2022-12-07T02:13:03;8.80;;;5.83;;
3311;SDS011;1668;49.648;8.570;2022-12-07T02:15:35;9.20;;;6.17;;
3311;SDS011;1668;49.648;8.570;2022-12-07T02:18:13;9.50;;;5.83;;
3311;SDS011;1668;49.648;8.570;2022-12-07T02:20:46;8.07;;;5.67;;
3311;SDS011;1668;49.648;8.570;2022-12-07T02:23:39;9.20;;;6.10;;
3311;SDS011;1668;49.648;8.570;2022-12-07T02:26:19;10.60;;;6.63;;
3311;SDS011;1668;49.648;8.570;2022-12-07T02:29:11;10.00;;;6.80;;
3311;SDS011;1668;49.648;8.570;2022-12-07T02:31:44;10.30;;;6.70;;
3311;SDS011;1668;49.648;8.570;2022-12-07T02:34:17;9.67;;;6.50;;
3311;SDS011;1668;49.648;8.570;2022-12-07T02:36:50;9.00;;;6.27;;
3311;SDS011;1668;49.648;8.570;2022-12-07T02:39:24;11.17;;;6.93;;
3311;SDS011;1668;49.648;8.570;2022-12-07T02:41:58;10.70;;;6.43;;
3311;SDS011;1668;49.648;8.570;2022-12-07T02:44:32;8.27;;;5.77;;
3311;SDS011;1668;49.648;8.570;2022-12-07T02:47:00;9.60;;;5.60;;
3311;SDS011;1668;49.648;8.570;2022-12-07T02:49:30;10.33;;;6.47;;
3311;SDS011;1668;49.648;8.570;2022-12-07T02:51:57;11.53;;;6.97;;
3311;SDS011;1668;49.648;8.570;2022-12-07T02:54:24;9.97;;;5.93;;
3311;SDS011;1668;49.648;8.570;2022-12-07T02:56:52;10.70;;;6.40;;
3311;SDS011;1668;49.648;8.570;2022-12-07T02:59:26;10.67;;;6.87;;
3311;SDS011;1668;49.648;8.570;2022-12-07T03:02:06;11.40;;;6.90;;
3311;SDS011;1668;49.648;8.570;2022-12-07T03:04:45;9.33;;;5.93;;
3311;SDS011;1668;49.648;8.570;2022-12-07T03:07:21;10.60;;;6.53;;
3311;SDS011;1668;49.648;8.570;2022-12-07T03:09:57;10.60;;;6.50;;
3311;SDS011;1668;49.648;8.570;2022-12-07T03:12:29;9.63;;;6.27;;
3311;SDS011;1668;49.648;8.570;2022-12-07T03:15:07;9.20;;;6.70;;
3311;SDS011;1668;49.648;8.570;2022-12-07T03:17:38;12.30;;;6.50;;
3311;SDS011;1668;49.648;8.570;2022-12-07T03:20:09;9.40;;;6.13;;
3311;SDS011;1668;49.648;8.570;2022-12-07T03:22:39;11.33;;;6.37;;
3311;SDS011;1668;49.648;8.570;2022-12-07T03:25:10;9.20;;;5.93;;
3311;SDS011;1668;49.648;8.570;2022-12-07T03:27:41;9.00;;;6.30;;
3311;SDS011;1668;49.648;8.570;2022-12-07T03:30:13;12.57;;;6.47;;
3311;SDS011;1668;49.648;8.570;2022-12-07T03:32:43;10.67;;;6.50;;
3311;SDS011;1668;49.648;8.570;2022-12-07T03:35:15;12.20;;;6.20;;
3311;SDS011;1668;49.648;8.570;2022-12-07T03:37:47;10.27;;;6.50;;
3311;SDS011;1668;49.648;8.570;2022-12-07T03:40:18;8.67;;;6.50;;
3311;SDS011;1668;49.648;8.570;2022-12-07T03:42:49;10.90;;;6.00;;
3311;SDS011;1668;49.648;8.570;2022-12-07T03:45:19;13.73;;;6.33;;
3311;SDS011;1668;49.648;8.570;2022-12-07T03:47:53;9.90;;;6.30;;
3311;SDS011;1668;49.648;8.570;2022-12-07T03:50:32;10.77;;;6.10;;
3311;SDS011;1668;49.648;8.570;2022-12-07T03:53:05;9.80;;;6.40;;
3311;SDS011;1668;49.648;8.570;2022-12-07T03:55:35;10.07;;;6.50;;
3311;SDS011;1668;49.648;8.570;2022-12-07T03:58:07;9.77;;;6.30;;
3311;SDS011;1668;49.648;8.570;2022-12-07T04:00:38;13.40;;;6.60;;
3311;SDS011;1668;49.648;8.570;2022-12-07T04:03:06;9.00;;;6.27;;
3311;SDS011;1668;49.648;8.570;2022-12-07T04:05:33;10.60;;;6.37;;
3311;SDS011;1668;49.648;8.570;2022-12-07T04:08:00;10.40;;;6.90;;
3311;SDS011;1668;49.648;8.570;2022-12-07T04:10:27;14.93;;;6.63;;
3311;SDS011;1668;49.648;8.570;2022-12-07T04:12:54;10.40;;;6.80;;
3311;SDS011;1668;49.648;8.570;2022-12-07T04:15:21;13.23;;;6.93;;
3311;SDS011;1668;49.648;8.570;2022-12-07T04:17:50;11.80;;;7.43;;
3311;SDS011;1668;49.648;8.570;2022-12-07T04:20:16;10.53;;;6.53;;
3311;SDS011;1668;49.648;8.570;2022-12-07T04:22:43;9.53;;;6.10;;
3311;SDS011;1668;49.648;8.570;2022-12-07T04:25:10;11.40;;;6.97;;
3311;SDS011;1668;49.648;8.570;2022-12-07T04:27:37;11.13;;;6.90;;
3311;SDS011;1668;49.648;8.570;2022-12-07T04:30:04;11.17;;;5.80;;
3311;SDS011;1668;49.648;8.570;2022-12-07T04:32:32;11.97;;;6.87;;
3311;SDS011;1668;49.648;8.570;2022-12-07T04:35:00;11.60;;;6.80;;
3311;SDS011;1668;49.648;8.570;2022-12-07T04:37:27;11.50;;;7.13;;
3311;SDS011;1668;49.648;8.570;2022-12-07T04:39:54;10.97;;;6.43;;
3311;SDS011;1668;49.648;8.570;2022-12-07T04:42:21;9.67;;;6.37;;
3311;SDS011;1668;49.648;8.570;2022-12-07T04:44:48;11.73;;;7.40;;
3311;SDS011;1668;49.648;8.570;2022-12-07T04:47:15;9.93;;;6.50;;
3311;SDS011;1668;49.648;8.570;2022-12-07T04:49:42;10.43;;;6.33;;
3311;SDS011;1668;49.648;8.570;2022-12-07T04:52:10;9.50;;;6.17;;
3311;SDS011;1668;49.648;8.570;2022-12-07T04:54:37;10.00;;;6.83;;
3311;SDS011;1668;49.648;8.570;2022-12-07T04:57:04;9.70;;;6.33;;
3311;SDS011;1668;49.648;8.570;2022-12-07T04:59:31;10.63;;;6.50;;
3311;SDS011;1668;49.648;8.570;2022-12-07T05:01:57;11.07;;;6.63;;
3311;SDS011;1668;49.648;8.570;2022-12-07T05:04:24;9.70;;;6.17;;
3311;SDS011;1668;49.648;8.570;2022-12-07T05:06:51;10.20;;;6.27;;
3311;SDS011;1668;49.648;8.570;2022-12-07T05:09:19;9.10;;;6.60;;
3311;SDS011;1668;49.648;8.570;2022-12-07T05:11:46;11.30;;;7.77;;
3311;SDS011;1668;49.648;8.570;2022-12-07T05:14:13;11.40;;;7.17;;
3311;SDS011;1668;49.648;8.570;2022-12-07T05:16:42;12.00;;;7.53;;
3311;SDS011;1668;49.648;8.570;2022-12-07T05:19:10;10.70;;;7.27;;
3311;SDS011;1668;49.648;8.570;2022-12-07T05:21:38;10.03;;;6.40;;
3311;SDS011;1668;49.648;8.570;2022-12-07T05:24:06;9.73;;;6.40;;
3311;SDS011;1668;49.648;8.570;2022-12-07T05:26:35;10.77;;;6.80;;
3311;SDS011;1668;49.648;8.570;2022-12-07T05:29:02;12.23;;;7.27;;
3311;SDS011;1668;49.648;8.570;2022-12-07T05:31:29;10.60;;;7.07;;
3311;SDS011;1668;49.648;8.570;2022-12-07T05:33:57;10.77;;;7.23;;
3311;SDS011;1668;49.648;8.570;2022-12-07T05:36:23;9.47;;;6.70;;
3311;SDS011;1668;49.648;8.570;2022-12-07T05:38:50;11.40;;;6.73;;
3311;SDS011;1668;49.648;8.570;2022-12-07T05:41:17;11.07;;;7.80;;
3311;SDS011;1668;49.648;8.570;2022-12-07T05:44:04;12.33;;;7.40;;
3311;SDS011;1668;49.648;8.570;2022-12-07T05:46:31;12.20;;;7.00;;
3311;SDS011;1668;49.648;8.570;2022-12-07T05:48:58;11.00;;;7.03;;
3311;SDS011;1668;49.648;8.570;2022-12-07T05:51:25;10.57;;;6.60;;
3311;SDS011;1668;49.648;8.570;2022-12-07T05:53:52;9.60;;;6.50;;
3311;SDS011;1668;49.648;8.570;2022-12-07T05:56:19;11.57;;;7.40;;
3311;SDS011;1668;49.648;8.570;2022-12-07T05:58:46;11.53;;;6.83;;
3311;SDS011;1668;49.648;8.570;2022-12-07T06:01:31;13.73;;;7.23;;
3311;SDS011;1668;49.648;8.570;2022-12-07T06:03:58;8.50;;;5.90;;
3311;SDS011;1668;49.648;8.570;2022-12-07T06:06:25;9.70;;;6.87;;
3311;SDS011;1668;49.648;8.570;2022-12-07T06:08:52;13.97;;;8.27;;
3311;SDS011;1668;49.648;8.570;2022-12-07T06:11:19;12.10;;;7.97;;
3311;SDS011;1668;49.648;8.570;2022-12-07T06:14:03;14.57;;;8.67;;
3311;SDS011;1668;49.648;8.570;2022-12-07T06:16:32;16.83;;;11.07;;
3311;SDS011;1668;49.648;8.570;2022-12-07T06:18:59;19.20;;;13.00;;
3311;SDS011;1668;49.648;8.570;2022-12-07T06:21:26;25.50;;;14.80;;
3311;SDS011;1668;49.648;8.570;2022-12-07T06:23:53;16.10;;;11.13;;
3311;SDS011;1668;49.648;8.570;2022-12-07T06:26:20;28.10;;;15.53;;
3311;SDS011;1668;49.648;8.570;2022-12-07T06:28:47;69.30;;;36.80;;
3311;SDS011;1668;49.648;8.570;2022-12-07T06:31:14;76.03;;;40.13;;
3311;SDS011;1668;49.648;8.570;2022-12-07T06:33:43;87.77;;;42.50;;
3311;SDS011;1668;49.648;8.570;2022-12-07T06:36:09;86.87;;;37.63;;
3311;SDS011;1668;49.648;8.570;2022-12-07T06:38:37;95.87;;;36.70;;
3311;SDS011;1668;49.648;8.570;2022-12-07T06:41:03;94.33;;;36.20;;
3311;SDS011;1668;49.648;8.570;2022-12-07T06:43:31;122.13;;;43.37;;
3311;SDS011;1668;49.648;8.570;2022-12-07T06:45:58;119.37;;;38.00;;
3311;SDS011;1668;49.648;8.570;2022-12-07T06:48:25;157.10;;;47.07;;
3311;SDS011;1668;49.648;8.570;2022-12-07T06:50:53;274.50;;;69.37;;
3311;SDS011;1668;49.648;8.570;2022-12-07T06:53:20;267.60;;;65.70;;
3311;SDS011;1668;49.648;8.570;2022-12-07T06:55:47;258.27;;;63.40;;
3311;SDS011;1668;49.648;8.570;2022-12-07T06:58:15;219.03;;;58.47;;
3311;SDS011;1668;49.648;8.570;2022-12-07T07:00:42;222.87;;;58.53;;
3311;SDS011;1668;49.648;8.570;2022-12-07T07:03:09;175.17;;;50.10;;
3311;SDS011;1668;49.648;8.570;2022-12-07T07:05:36;126.33;;;39.10;;
3311;SDS011;1668;49.648;8.570;2022-12-07T07:08:04;96.97;;;28.50;;
3311;SDS011;1668;49.648;8.570;2022-12-07T07:10:31;77.83;;;25.53;;
3311;SDS011;1668;49.648;8.570;2022-12-07T07:12:58;67.33;;;24.93;;
3311;SDS011;1668;49.648;8.570;2022-12-07T07:15:24;55.07;;;22.53;;
3311;SDS011;1668;49.648;8.570;2022-12-07T07:17:51;52.97;;;21.70;;
3311;SDS011;1668;49.648;8.570;2022-12-07T07:20:18;46.63;;;19.03;;
3311;SDS011;1668;49.648;8.570;2022-12-07T07:22:45;34.53;;;15.77;;
3311;SDS011;1668;49.648;8.570;2022-12-07T07:25:13;29.50;;;14.70;;
3311;SDS011;1668;49.648;8.570;2022-12-07T07:27:40;24.50;;;12.20;;
3311;SDS011;1668;49.648;8.570;2022-12-07T07:30:08;22.00;;;10.27;;
3311;SDS011;1668;49.648;8.570;2022-12-07T07:32:35;18.80;;;10.33;;
3311;SDS011;1668;49.648;8.570;2022-12-07T07:35:03;17.33;;;9.60;;
3311;SDS011;1668;49.648;8.570;2022-12-07T07:37:30;20.73;;;9.83;;
3311;SDS011;1668;49.648;8.570;2022-12-07T07:39:57;13.07;;;8.40;;
3311;SDS011;1668;49.648;8.570;2022-12-07T07:42:25;20.33;;;8.27;;
3311;SDS011;1668;49.648;8.570;2022-12-07T07:44:52;18.43;;;9.10;;
3311;SDS011;1668;49.648;8.570;2022-12-07T07:47:19;16.13;;;9.63;;
3311;SDS011;1668;49.648;8.570;2022-12-07T07:49:46;15.37;;;8.57;;
3311;SDS011;1668;49.648;8.570;2022-12-07T07:52:13;14.93;;;8.60;;
3311;SDS011;1668;49.648;8.570;2022-12-07T07:54:40;15.57;;;8.07;;
3311;SDS011;1668;49.648;8.570;2022-12-07T07:57:06;13.87;;;8.20;;
3311;SDS011;1668;49.648;8.570;2022-12-07T07:59:35;12.27;;;7.87;;
3311;SDS011;1668;49.648;8.570;2022-12-07T08:02:01;13.23;;;8.83;;
3311;SDS011;1668;49.648;8.570;2022-12-07T08:04:28;13.80;;;8.30;;
3311;SDS011;1668;49.648;8.570;2022-12-07T08:06:56;17.97;;;8.97;;
3311;SDS011;1668;49.648;8.570;2022-12-07T08:09:23;16.30;;;10.20;;
3311;SDS011;1668;49.648;8.570;2022-12-07T08:11:50;15.83;;;8.90;;
3311;SDS011;1668;49.648;8.570;2022-12-07T08:14:17;13.37;;;9.07;;
3311;SDS011;1668;49.648;8.570;2022-12-07T08:16:45;13.20;;;8.17;;
3311;SDS011;1668;49.648;8.570;2022-12-07T08:19:13;13.77;;;9.00;;
3311;SDS011;1668;49.648;8.570;2022-12-07T08:21:39;14.77;;;9.43;;
3311;SDS011;1668;49.648;8.570;2022-12-07T08:24:07;18.43;;;11.63;;
3311;SDS011;1668;49.648;8.570;2022-12-07T08:26:34;20.07;;;11.07;;
3311;SDS011;1668;49.648;8.570;2022-12-07T08:29:01;19.73;;;10.90;;
3311;SDS011;1668;49.648;8.570;2022-12-07T08:31:28;16.17;;;10.10;;
3311;SDS011;1668;49.648;8.570;2022-12-07T08:33:57;21.80;;;11.97;;
3311;SDS011;1668;49.648;8.570;2022-12-07T08:36:24;21.90;;;12.70;;
3311;SDS011;1668;49.648;8.570;2022-12-07T08:38:51;22.23;;;12.30;;
3311;SDS011;1668;49.648;8.570;2022-12-07T08:41:18;21.37;;;12.17;;
3311;SDS011;1668;49.648;8.570;2022-12-07T08:43:45;21.97;;;11.40;;
3311;SDS011;1668;49.648;8.570;2022-12-07T08:46:12;18.60;;;10.83;;
3311;SDS011;1668;49.648;8.570;2022-12-07T08:48:44;19.30;;;11.03;;
3311;SDS011;1668;49.648;8.570;2022-12-07T08:51:17;14.13;;;9.03;;
3311;SDS011;1668;49.648;8.570;2022-12-07T08:53:44;16.57;;;10.67;;
3311;SDS011;1668;49.648;8.570;2022-12-07T08:56:11;17.70;;;10.40;;
3311;SDS011;1668;49.648;8.570;2022-12-07T08:58:38;16.77;;;11.63;;
3311;SDS011;1668;49.648;8.570;2022-12-07T09:01:05;15.03;;;9.43;;
3311;SDS011;1668;49.648;8.570;2022-12-07T09:03:32;14.07;;;9.63;;
3311;SDS011;1668;49.648;8.570;2022-12-07T09:05:59;16.37;;;10.37;;
3311;SDS011;1668;49.648;8.570;2022-12-07T09:08:28;18.03;;;9.20;;
3311;SDS011;1668;49.648;8.570;2022-12-07T09:11:00;16.93;;;10.13;;
3311;SDS011;1668;49.648;8.570;2022-12-07T09:13:27;15.73;;;10.07;;
3311;SDS011;1668;49.648;8.570;2022-12-07T09:15:54;13.90;;;9.13;;
3311;SDS011;1668;49.648;8.570;2022-12-07T09:18:21;16.60;;;10.10;;
3311;SDS011;1668;49.648;8.570;2022-12-07T09:20:49;19.87;;;9.73;;
3311;SDS011;1668;49.648;8.570;2022-12-07T09:23:16;17.33;;;9.20;;
3311;SDS011;1668;49.648;8.570;2022-12-07T09:25:44;13.00;;;9.20;;
3311;SDS011;1668;49.648;8.570;2022-12-07T09:28:11;12.97;;;8.97;;
3311;SDS011;1668;49.648;8.570;2022-12-07T09:30:38;13.27;;;8.70;;
3311;SDS011;1668;49.648;8.570;2022-12-07T09:33:04;15.00;;;10.57;;
3311;SDS011;1668;49.648;8.570;2022-12-07T09:35:31;16.63;;;9.40;;
3311;SDS011;1668;49.648;8.570;2022-12-07T09:37:58;14.83;;;9.93;;
3311;SDS011;1668;49.648;8.570;2022-12-07T09:40:25;14.60;;;9.40;;
3311;SDS011;1668;49.648;8.570;2022-12-07T09:42:53;15.70;;;9.83;;
3311;SDS011;1668;49.648;8.570;2022-12-07T09:45:22;14.80;;;9.90;;
3311;SDS011;1668;49.648;8.570;2022-12-07T09:47:50;19.30;;;10.60;;
3311;SDS011;1668;49.648;8.570;2022-12-07T09:50:19;16.33;;;10.33;;
3311;SDS011;1668;49.648;8.570;2022-12-07T09:52:49;20.33;;;11.73;;
3311;SDS011;1668;49.648;8.570;2022-12-07T09:55:18;17.20;;;10.10;;
3311;SDS011;1668;49.648;8.570;2022-12-07T09:57:49;17.47;;;11.03;;
3311;SDS011;1668;49.648;8.570;2022-12-07T10:00:19;16.37;;;10.40;;
3311;SDS011;1668;49.648;8.570;2022-12-07T10:02:49;14.47;;;9.33;;
3311;SDS011;1668;49.648;8.570;2022-12-07T10:05:22;15.37;;;9.60;;
3311;SDS011;1668;49.648;8.570;2022-12-07T10:07:52;17.03;;;10.00;;
3311;SDS011;1668;49.648;8.570;2022-12-07T10:10:20;15.70;;;9.20;;
3311;SDS011;1668;49.648;8.570;2022-12-07T10:12:55;16.90;;;10.23;;
3311;SDS011;1668;49.648;8.570;2022-12-07T10:15:25;18.10;;;9.83;;
3311;SDS011;1668;49.648;8.570;2022-12-07T10:18:17;14.87;;;9.40;;
3311;SDS011;1668;49.648;8.570;2022-12-07T10:20:46;14.33;;;8.67;;
3311;SDS011;1668;49.648;8.570;2022-12-07T10:23:14;13.90;;;9.13;;
3311;SDS011;1668;49.648;8.570;2022-12-07T10:25:42;17.00;;;9.40;;
3311;SDS011;1668;49.648;8.570;2022-12-07T10:28:14;15.17;;;10.30;;
3311;SDS011;1668;49.648;8.570;2022-12-07T10:30:51;13.73;;;8.97;;
3311;SDS011;1668;49.648;8.570;2022-12-07T10:33:32;14.87;;;8.53;;
3311;SDS011;1668;49.648;8.570;2022-12-07T10:36:15;14.77;;;10.40;;
3311;SDS011;1668;49.648;8.570;2022-12-07T10:38:45;14.47;;;9.77;;
3311;SDS011;1668;49.648;8.570;2022-12-07T10:41:14;20.13;;;10.70;;
3311;SDS011;1668;49.648;8.570;2022-12-07T10:43:48;14.93;;;9.80;;
3311;SDS011;1668;49.648;8.570;2022-12-07T10:52:22;15.07;;;9.80;;
3311;SDS011;1668;49.648;8.570;2022-12-07T10:55:03;15.20;;;9.50;;
3311;SDS011;1668;49.648;8.570;2022-12-07T10:57:42;11.67;;;7.83;;
3311;SDS011;1668;49.648;8.570;2022-12-07T11:00:20;16.47;;;8.43;;
3311;SDS011;1668;49.648;8.570;2022-12-07T11:02:59;12.30;;;7.73;;
3311;SDS011;1668;49.648;8.570;2022-12-07T11:05:48;11.70;;;7.40;;
3311;SDS011;1668;49.648;8.570;2022-12-07T11:08:24;10.00;;;6.90;;
3311;SDS011;1668;49.648;8.570;2022-12-07T11:11:05;11.03;;;8.20;;
3311;SDS011;1668;49.648;8.570;2022-12-07T11:13:37;12.30;;;8.47;;
3311;SDS011;1668;49.648;8.570;2022-12-07T11:16:16;13.80;;;8.90;;
3311;SDS011;1668;49.648;8.570;2022-12-07T11:18:58;14.70;;;9.33;;
3311;SDS011;1668;49.648;8.570;2022-12-07T11:21:40;11.43;;;8.20;;
3311;SDS011;1668;49.648;8.570;2022-12-07T11:24:13;11.50;;;8.27;;
3311;SDS011;1668;49.648;8.570;2022-12-07T11:26:46;14.43;;;7.83;;
3311;SDS011;1668;49.648;8.570;2022-12-07T11:29:35;12.07;;;8.53;;
3311;SDS011;1668;49.648;8.570;2022-12-07T11:32:15;13.17;;;8.93;;
3311;SDS011;1668;49.648;8.570;2022-12-07T11:34:51;14.30;;;10.37;;
3311;SDS011;1668;49.648;8.570;2022-12-07T11:37:30;12.93;;;8.43;;
3311;SDS011;1668;49.648;8.570;2022-12-07T11:40:00;14.97;;;9.53;;
3311;SDS011;1668;49.648;8.570;2022-12-07T11:42:30;16.03;;;10.20;;
3311;SDS011;1668;49.648;8.570;2022-12-07T11:45:09;14.30;;;8.60;;
3311;SDS011;1668;49.648;8.570;2022-12-07T11:47:40;15.10;;;9.60;;
3311;SDS011;1668;49.648;8.570;2022-12-07T11:50:17;15.20;;;9.50;;
3311;SDS011;1668;49.648;8.570;2022-12-07T11:52:53;12.57;;;8.57;;
3311;SDS011;1668;49.648;8.570;2022-12-07T11:55:24;11.83;;;8.30;;
3311;SDS011;1668;49.648;8.570;2022-12-07T11:58:00;12.30;;;8.03;;
3311;SDS011;1668;49.648;8.570;2022-12-07T12:00:31;13.27;;;8.17;;
3311;SDS011;1668;49.648;8.570;2022-12-07T12:02:59;13.63;;;7.93;;
3311;SDS011;1668;49.648;8.570;2022-12-07T12:05:31;14.80;;;7.30;;
3311;SDS011;1668;49.648;8.570;2022-12-07T12:08:00;11.27;;;5.80;;
3311;SDS011;1668;49.648;8.570;2022-12-07T12:10:46;9.97;;;5.23;;
3311;SDS011;1668;49.648;8.570;2022-12-07T12:13:43;7.53;;;4.77;;
3311;SDS011;1668;49.648;8.570;2022-12-07T12:16:43;9.53;;;3.67;;
3311;SDS011;1668;49.648;8.570;2022-12-07T12:19:25;5.27;;;3.00;;
3311;SDS011;1668;49.648;8.570;2022-12-07T12:22:01;9.30;;;3.40;;
3311;SDS011;1668;49.648;8.570;2022-12-07T12:24:34;5.83;;;3.30;;
3311;SDS011;1668;49.648;8.570;2022-12-07T12:27:05;5.27;;;3.23;;
3311;SDS011;1668;49.648;8.570;2022-12-07T12:29:35;8.13;;;4.50;;
3311;SDS011;1668;49.648;8.570;2022-12-07T12:32:06;8.60;;;3.80;;
3311;SDS011;1668;49.648;8.570;2022-12-07T12:34:38;4.13;;;3.33;;
3311;SDS011;1668;49.648;8.570;2022-12-07T12:46:36;6.27;;;2.80;;
3311;SDS011;1668;49.648;8.570;2022-12-07T12:49:34;5.60;;;3.10;;
3311;SDS011;1668;49.648;8.570;2022-12-07T12:55:16;4.97;;;2.30;;
3311;SDS011;1668;49.648;8.570;2022-12-07T13:04:14;8.60;;;3.30;;
3311;SDS011;1668;49.648;8.570;2022-12-07T13:06:54;4.80;;;2.33;;
3311;SDS011;1668;49.648;8.570;2022-12-07T13:09:22;4.50;;;2.50;;
3311;SDS011;1668;49.648;8.570;2022-12-07T13:11:57;8.60;;;2.30;;
3311;SDS011;1668;49.648;8.570;2022-12-07T13:14:40;10.10;;;3.20;;
3311;SDS011;1668;49.648;8.570;2022-12-07T13:17:09;4.90;;;2.93;;
3311;SDS011;1668;49.648;8.570;2022-12-07T13:22:37;8.97;;;4.60;;
3311;SDS011;1668;49.648;8.570;2022-12-07T13:25:09;17.17;;;5.80;;
3311;SDS011;1668;49.648;8.570;2022-12-07T13:27:41;16.30;;;5.60;;
3311;SDS011;1668;49.648;8.570;2022-12-07T13:30:14;16.83;;;6.57;;
3311;SDS011;1668;49.648;8.570;2022-12-07T13:32:42;8.80;;;4.70;;
3311;SDS011;1668;49.648;8.570;2022-12-07T13:35:30;6.30;;;3.93;;
3311;SDS011;1668;49.648;8.570;2022-12-07T13:37:59;9.17;;;5.07;;
3311;SDS011;1668;49.648;8.570;2022-12-07T13:40:29;11.40;;;5.57;;
3311;SDS011;1668;49.648;8.570;2022-12-07T13:42:58;8.50;;;5.70;;
3311;SDS011;1668;49.648;8.570;2022-12-07T13:45:26;6.80;;;4.33;;
3311;SDS011;1668;49.648;8.570;2022-12-07T13:48:10;8.90;;;4.73;;
3311;SDS011;1668;49.648;8.570;2022-12-07T13:50:42;9.70;;;4.60;;
3311;SDS011;1668;49.648;8.570;2022-12-07T13:53:11;5.83;;;3.83;;
3311;SDS011;1668;49.648;8.570;2022-12-07T13:55:44;7.17;;;3.73;;
3311;SDS011;1668;49.648;8.570;2022-12-07T13:58:13;5.63;;;3.50;;
3311;SDS011;1668;49.648;8.570;2022-12-07T14:00:41;9.50;;;4.27;;
3311;SDS011;1668;49.648;8.570;2022-12-07T14:03:26;5.83;;;3.50;;
3311;SDS011;1668;49.648;8.570;2022-12-07T14:06:16;7.17;;;3.27;;
3311;SDS011;1668;49.648;8.570;2022-12-07T14:08:46;5.23;;;3.83;;
3311;SDS011;1668;49.648;8.570;2022-12-07T14:11:14;6.73;;;4.17;;
3311;SDS011;1668;49.648;8.570;2022-12-07T14:13:58;6.77;;;3.93;;
3311;SDS011;1668;49.648;8.570;2022-12-07T14:16:27;6.20;;;3.90;;
3311;SDS011;1668;49.648;8.570;2022-12-07T14:18:56;6.20;;;4.00;;
3311;SDS011;1668;49.648;8.570;2022-12-07T14:21:25;6.47;;;3.47;;
3311;SDS011;1668;49.648;8.570;2022-12-07T14:24:06;6.83;;;4.07;;
3311;SDS011;1668;49.648;8.570;2022-12-07T14:26:36;8.60;;;4.50;;
3311;SDS011;1668;49.648;8.570;2022-12-07T14:29:21;8.83;;;4.77;;
3311;SDS011;1668;49.648;8.570;2022-12-07T14:31:56;6.23;;;4.10;;
3311;SDS011;1668;49.648;8.570;2022-12-07T14:34:25;8.70;;;4.60;;
3311;SDS011;1668;49.648;8.570;2022-12-07T14:36:51;18.10;;;5.60;;
3311;SDS011;1668;49.648;8.570;2022-12-07T14:39:18;7.80;;;4.43;;
3311;SDS011;1668;49.648;8.570;2022-12-07T14:41:45;7.93;;;4.70;;
3311;SDS011;1668;49.648;8.570;2022-12-07T14:44:19;8.67;;;4.77;;
3311;SDS011;1668;49.648;8.570;2022-12-07T14:46:48;7.13;;;5.00;;
3311;SDS011;1668;49.648;8.570;2022-12-07T14:49:16;9.50;;;5.20;;
3311;SDS011;1668;49.648;8.570;2022-12-07T14:51:43;9.13;;;5.67;;
3311;SDS011;1668;49.648;8.570;2022-12-07T14:54:13;13.13;;;6.20;;
3311;SDS011;1668;49.648;8.570;2022-12-07T14:56:42;8.40;;;4.90;;
3311;SDS011;1668;49.648;8.570;2022-12-07T14:59:10;9.90;;;4.87;;
3311;SDS011;1668;49.648;8.570;2022-12-07T15:01:39;7.97;;;4.40;;
3311;SDS011;1668;49.648;8.570;2022-12-07T15:04:06;7.33;;;4.33;;
3311;SDS011;1668;49.648;8.570;2022-12-07T15:06:32;7.50;;;4.40;;
3311;SDS011;1668;49.648;8.570;2022-12-07T15:08:59;6.30;;;3.90;;
3311;SDS011;1668;49.648;8.570;2022-12-07T15:11:26;8.57;;;3.63;;
3311;SDS011;1668;49.648;8.570;2022-12-07T15:13:53;5.87;;;4.17;;
3311;SDS011;1668;49.648;8.570;2022-12-07T15:16:36;6.43;;;4.23;;
3311;SDS011;1668;49.648;8.570;2022-12-07T15:19:09;10.50;;;3.97;;
3311;SDS011;1668;49.648;8.570;2022-12-07T15:21:38;6.37;;;4.30;;
3311;SDS011;1668;49.648;8.570;2022-12-07T15:24:06;8.67;;;4.70;;
3311;SDS011;1668;49.648;8.570;2022-12-07T15:26:34;5.50;;;3.30;;
3311;SDS011;1668;49.648;8.570;2022-12-07T15:29:01;8.10;;;3.47;;
3311;SDS011;1668;49.648;8.570;2022-12-07T15:31:28;9.30;;;4.63;;
3311;SDS011;1668;49.648;8.570;2022-12-07T15:33:56;8.87;;;4.83;;
3311;SDS011;1668;49.648;8.570;2022-12-07T15:36:23;10.90;;;5.40;;
3311;SDS011;1668;49.648;8.570;2022-12-07T15:38:51;6.87;;;4.80;;
3311;SDS011;1668;49.648;8.570;2022-12-07T15:41:19;11.63;;;6.50;;
3311;SDS011;1668;49.648;8.570;2022-12-07T15:43:46;11.50;;;6.37;;
3311;SDS011;1668;49.648;8.570;2022-12-07T15:46:30;14.03;;;6.97;;
3311;SDS011;1668;49.648;8.570;2022-12-07T15:48:59;17.40;;;8.27;;
3311;SDS011;1668;49.648;8.570;2022-12-07T15:51:27;14.63;;;7.90;;
3311;SDS011;1668;49.648;8.570;2022-12-07T15:53:54;14.23;;;6.90;;
3311;SDS011;1668;49.648;8.570;2022-12-07T15:56:21;12.67;;;7.87;;